createdAt,value
2023-03-02T00:01:56.822Z,100553.00
2023-03-02T00:04:38.224Z,100546.21
2023-03-02T00:07:12.632Z,100543.27
2023-03-02T00:09:43.260Z,100541.44
2023-03-02T00:12:12.043Z,100538.66
2023-03-02T00:14:40.522Z,100538.84
2023-03-02T00:17:10.820Z,100537.66
2023-03-02T00:19:39.369Z,100539.48
2023-03-02T00:22:10.104Z,100537.56
2023-03-02T00:24:39.674Z,100541.46
2023-03-02T00:27:08.170Z,100543.02
2023-03-02T00:29:36.900Z,100545.15
2023-03-02T00:32:07.271Z,100546.64
2023-03-02T00:34:35.885Z,100545.40
2023-03-02T00:37:04.809Z,100546.59
2023-03-02T00:39:33.629Z,100539.77
2023-03-02T00:42:02.414Z,100546.66
2023-03-02T00:44:31.613Z,100540.28
2023-03-02T00:47:00.974Z,100541.18
2023-03-02T00:49:33.114Z,100538.11
2023-03-02T00:52:07.808Z,100542.31
2023-03-02T00:54:37.752Z,100544.58
2023-03-02T00:57:06.481Z,100547.00
2023-03-02T00:59:37.774Z,100544.25
2023-03-02T01:02:11.619Z,100545.32
2023-03-02T01:04:41.308Z,100548.71
2023-03-02T01:07:16.638Z,100555.75
2023-03-02T01:09:45.411Z,100552.40
2023-03-02T01:12:16.347Z,100555.16
2023-03-02T01:14:48.027Z,100554.15
2023-03-02T01:17:16.690Z,100552.08
2023-03-02T01:19:47.102Z,100552.22
2023-03-02T01:22:15.519Z,100553.25
2023-03-02T01:24:44.078Z,100556.54
2023-03-02T01:27:13.381Z,100550.95
2023-03-02T01:29:41.863Z,100543.60
2023-03-02T01:32:10.619Z,100543.48
2023-03-02T01:34:39.660Z,100539.05
2023-03-02T01:37:08.261Z,100537.73
2023-03-02T01:39:38.680Z,100532.45
2023-03-02T01:42:07.240Z,100529.69
2023-03-02T01:44:36.948Z,100532.45
2023-03-02T01:47:36.871Z,100532.66
2023-03-02T01:50:15.696Z,100529.28
2023-03-02T01:52:47.349Z,100528.65
2023-03-02T01:55:19.919Z,100531.21
2023-03-02T01:57:49.636Z,100533.23
2023-03-02T02:00:23.045Z,100530.80
2023-03-02T02:02:51.928Z,100531.45
2023-03-02T02:05:23.684Z,100528.25
2023-03-02T02:07:53.266Z,100522.50
2023-03-02T02:10:22.684Z,100525.95
2023-03-02T02:12:51.576Z,100522.75
2023-03-02T02:15:20.321Z,100523.88
2023-03-02T02:17:50.690Z,100524.14
2023-03-02T02:20:36.479Z,100528.41
2023-03-02T02:23:26.057Z,100528.80
2023-03-02T02:26:20.931Z,100526.98
2023-03-02T02:29:01.072Z,100519.62
2023-03-02T02:31:56.964Z,100517.96
2023-03-02T02:34:33.149Z,100514.19
2023-03-02T02:37:09.660Z,100520.47
2023-03-02T02:39:41.301Z,100514.38
2023-03-02T02:42:21.588Z,100516.73
2023-03-02T02:44:50.873Z,100516.86
2023-03-02T02:47:20.992Z,100511.34
2023-03-02T02:49:52.240Z,100511.55
2023-03-02T02:52:23.692Z,100510.05
2023-03-02T02:54:57.212Z,100506.97
2023-03-02T02:57:27.078Z,100512.22
2023-03-02T02:59:58.836Z,100511.17
2023-03-02T03:02:29.188Z,100509.76
2023-03-02T03:05:03.988Z,100505.48
2023-03-02T03:07:36.084Z,100505.77
2023-03-02T03:10:19.521Z,100506.30
2023-03-02T03:12:52.703Z,100511.38
2023-03-02T03:15:22.139Z,100517.60
2023-03-02T03:17:57.450Z,100514.20
2023-03-02T03:20:26.757Z,100509.02
2023-03-02T03:22:56.025Z,100511.82
2023-03-02T03:25:25.983Z,100510.39
2023-03-02T03:27:55.575Z,100509.67
2023-03-02T03:30:24.248Z,100514.36
2023-03-02T03:32:54.060Z,100506.09
2023-03-02T03:35:23.279Z,100504.20
2023-03-02T03:37:52.260Z,100504.23
2023-03-02T03:40:29.241Z,100501.49
2023-03-02T03:42:58.331Z,100502.64
2023-03-02T03:45:27.536Z,100500.73
2023-03-02T03:47:57.866Z,100501.77
2023-03-02T03:50:26.432Z,100497.33
2023-03-02T03:52:56.147Z,100490.52
2023-03-02T03:55:29.348Z,100489.45
2023-03-02T03:57:57.938Z,100494.93
2023-03-02T04:00:26.911Z,100495.72
2023-03-02T04:02:58.135Z,100496.73
2023-03-02T04:05:31.696Z,100499.45
2023-03-02T04:08:02.471Z,100497.36
2023-03-02T04:10:31.895Z,100500.30
2023-03-02T04:13:01.024Z,100498.76
2023-03-02T04:15:30.116Z,100502.22
2023-03-02T04:18:00.202Z,100502.27
2023-03-02T04:20:29.501Z,100503.96
2023-03-02T04:22:59.107Z,100500.65
2023-03-02T04:25:30.045Z,100500.66
2023-03-02T04:28:06.929Z,100500.86
2023-03-02T04:30:38.652Z,100492.77
2023-03-02T04:33:07.297Z,100491.73
2023-03-02T04:35:36.603Z,100489.89
2023-03-02T04:38:06.023Z,100489.19
2023-03-02T04:40:34.566Z,100485.96
2023-03-02T04:43:03.238Z,100486.65
2023-03-02T04:45:31.759Z,100487.27
2023-03-02T04:48:00.739Z,100489.92
2023-03-02T04:50:31.568Z,100492.21
2023-03-02T04:53:03.130Z,100493.26
2023-03-02T04:55:32.724Z,100491.02
2023-03-02T04:58:01.208Z,100496.27
2023-03-02T05:00:31.282Z,100495.23
2023-03-02T05:03:02.126Z,100496.17
2023-03-02T05:05:32.178Z,100500.48
2023-03-02T05:08:01.690Z,100500.94
2023-03-02T05:10:31.904Z,100503.54
2023-03-02T05:13:05.978Z,100503.36
2023-03-02T05:15:37.025Z,100501.31
2023-03-02T05:18:07.077Z,100497.35
2023-03-02T05:20:35.799Z,100497.39
2023-03-02T05:23:08.147Z,100491.80
2023-03-02T05:25:37.531Z,100491.77
2023-03-02T05:28:07.042Z,100498.27
2023-03-02T05:30:38.097Z,100498.89
2023-03-02T05:33:06.655Z,100496.72
2023-03-02T05:35:35.193Z,100495.16
2023-03-02T05:38:03.745Z,100496.11
2023-03-02T05:40:32.636Z,100499.02
2023-03-02T05:43:01.427Z,100494.36
2023-03-02T05:45:32.201Z,100493.43
2023-03-02T05:48:01.652Z,100490.39
2023-03-02T05:50:30.248Z,100490.50
2023-03-02T05:53:00.668Z,100489.99
2023-03-02T05:55:29.044Z,100486.56
2023-03-02T05:57:57.929Z,100489.52
2023-03-02T06:00:32.457Z,100494.90
2023-03-02T06:03:01.475Z,100491.70
2023-03-02T06:05:30.165Z,100491.23
2023-03-02T06:07:59.025Z,100485.20
2023-03-02T06:10:27.702Z,100483.64
2023-03-02T06:12:56.276Z,100482.91
2023-03-02T06:15:24.813Z,100483.95
2023-03-02T06:17:53.896Z,100479.45
2023-03-02T06:20:22.470Z,100476.64
2023-03-02T06:22:51.749Z,100476.33
2023-03-02T06:25:22.485Z,100472.96
2023-03-02T06:27:52.706Z,100474.55
2023-03-02T06:30:22.957Z,100476.45
2023-03-02T06:32:51.805Z,100475.58
2023-03-02T06:35:21.407Z,100471.41
2023-03-02T06:37:50.324Z,100474.52
2023-03-02T06:40:21.802Z,100469.80
2023-03-02T06:42:51.020Z,100474.77
2023-03-02T06:45:21.112Z,100468.26
2023-03-02T06:47:49.784Z,100468.74
2023-03-02T06:50:18.353Z,100472.11
2023-03-02T06:52:46.902Z,100463.47
2023-03-02T06:55:15.419Z,100457.53
2023-03-02T06:57:44.574Z,100460.43
2023-03-02T07:00:17.221Z,100457.86
2023-03-02T07:02:46.244Z,100455.13
2023-03-02T07:05:14.525Z,100458.64
2023-03-02T07:07:49.908Z,100457.16
2023-03-02T07:10:18.624Z,100454.83
2023-03-02T07:12:47.513Z,100454.05
2023-03-02T07:15:22.624Z,100450.72
2023-03-02T07:17:51.412Z,100449.52
2023-03-02T07:20:20.315Z,100450.61
2023-03-02T07:22:49.907Z,100448.64
2023-03-02T07:25:18.307Z,100443.57
2023-03-02T07:27:49.836Z,100447.04
2023-03-02T07:30:21.596Z,100446.02
2023-03-02T07:32:49.764Z,100437.89
2023-03-02T07:35:19.224Z,100438.09
2023-03-02T07:37:47.758Z,100444.34
2023-03-02T07:40:16.582Z,100443.80
2023-03-02T07:42:46.302Z,100442.08
2023-03-02T07:45:17.190Z,100436.84
2023-03-02T07:47:45.672Z,100431.77
2023-03-02T07:50:14.153Z,100433.27
2023-03-02T07:52:43.255Z,100431.44
2023-03-02T07:55:11.734Z,100438.47
2023-03-02T07:57:40.418Z,100435.88
2023-03-02T08:00:09.996Z,100434.35
2023-03-02T08:02:41.826Z,100431.95
2023-03-02T08:05:13.651Z,100439.39
2023-03-02T08:07:42.881Z,100435.06
2023-03-02T08:10:12.564Z,100434.06
2023-03-02T08:12:43.034Z,100435.52
2023-03-02T08:15:12.495Z,100438.02
2023-03-02T08:17:41.174Z,100440.23
2023-03-02T08:20:15.699Z,100435.40
2023-03-02T08:22:44.434Z,100431.80
2023-03-02T08:25:14.808Z,100430.07
2023-03-02T08:27:46.140Z,100427.00
2023-03-02T08:30:15.450Z,100419.29
2023-03-02T08:32:43.980Z,100419.52
2023-03-02T08:35:13.153Z,100416.30
2023-03-02T08:37:41.934Z,100425.48
2023-03-02T08:40:11.249Z,100430.86
2023-03-02T08:42:41.140Z,100422.71
2023-03-02T08:45:13.620Z,100426.09
2023-03-02T08:47:43.326Z,100433.23
2023-03-02T08:50:11.841Z,100434.23
2023-03-02T08:52:40.799Z,100441.24
2023-03-02T08:55:10.558Z,100445.42
2023-03-02T08:57:39.250Z,100432.05
2023-03-02T09:00:12.163Z,100441.25
2023-03-02T09:02:41.476Z,100446.61
2023-03-02T09:05:12.404Z,100448.37
2023-03-02T09:07:41.203Z,100447.77
2023-03-02T09:10:10.478Z,100451.17
2023-03-02T09:12:40.937Z,100457.09
2023-03-02T09:15:10.368Z,100468.25
2023-03-02T09:17:43.051Z,100468.45
2023-03-02T09:20:12.652Z,100471.73
2023-03-02T09:22:42.875Z,100463.74
2023-03-02T09:25:11.297Z,100464.60
2023-03-02T09:27:40.030Z,100462.48
2023-03-02T09:30:10.515Z,100458.70
2023-03-02T09:32:39.458Z,100459.10
2023-03-02T09:35:08.527Z,100454.79
2023-03-02T09:37:39.074Z,100462.72
2023-03-02T09:40:16.798Z,100464.17
2023-03-02T09:43:12.276Z,100463.42
2023-03-02T09:45:51.064Z,100465.42
2023-03-02T09:48:38.212Z,100465.33
2023-03-02T09:51:06.692Z,100468.55
2023-03-02T09:53:46.816Z,100461.99
2023-03-02T09:56:19.846Z,100456.92
2023-03-02T09:59:22.327Z,100454.80
2023-03-02T10:02:04.641Z,100458.73
2023-03-02T10:04:43.887Z,100455.46
2023-03-02T10:07:24.718Z,100453.17
2023-03-02T10:09:53.238Z,100448.04
2023-03-02T10:13:05.409Z,100447.61
2023-03-02T10:15:56.913Z,100448.91
2023-03-02T10:18:41.010Z,100453.68
2023-03-02T10:21:31.394Z,100463.98
2023-03-02T10:24:04.788Z,100461.70
2023-03-02T10:26:40.358Z,100453.89
2023-03-02T10:30:06.779Z,100452.89
2023-03-02T10:32:44.797Z,100458.12
2023-03-02T10:35:19.336Z,100455.63
2023-03-02T10:37:47.910Z,100454.45
2023-03-02T10:40:34.269Z,100454.27
2023-03-02T10:43:02.641Z,100462.10
2023-03-02T10:45:32.681Z,100466.88
2023-03-02T10:48:02.619Z,100470.70
2023-03-02T10:50:31.298Z,100472.19
2023-03-02T10:53:02.474Z,100476.23
2023-03-02T10:55:33.368Z,100477.96
2023-03-02T10:58:07.072Z,100482.44
2023-03-02T11:00:36.939Z,100489.96
2023-03-02T11:03:18.108Z,100497.46
2023-03-02T11:05:47.142Z,100497.10
2023-03-02T11:08:18.611Z,100502.45
2023-03-02T11:11:00.608Z,100502.66
2023-03-02T11:13:37.352Z,100510.30
2023-03-02T11:16:17.874Z,100513.15
2023-03-02T11:19:22.857Z,100512.61
2023-03-02T11:22:30.361Z,100516.90
2023-03-02T11:24:59.966Z,100517.92
2023-03-02T11:27:29.568Z,100526.06
2023-03-02T11:29:59.584Z,100522.58
2023-03-02T11:32:27.939Z,100526.60
2023-03-02T11:35:03.557Z,100529.80
2023-03-02T11:37:51.660Z,100533.02
2023-03-02T11:40:26.779Z,100535.55
2023-03-02T11:42:56.912Z,100533.27
2023-03-02T11:45:49.468Z,100530.20
2023-03-02T11:48:33.572Z,100523.81
2023-03-02T11:51:13.421Z,100524.04
2023-03-02T11:54:13.850Z,100524.59
2023-03-02T11:56:42.470Z,100524.95
2023-03-02T11:59:15.097Z,100518.91
2023-03-02T12:01:45.507Z,100519.18
2023-03-02T12:04:37.387Z,100523.02
2023-03-02T12:07:23.094Z,100520.22
2023-03-02T12:10:07.642Z,100520.48
2023-03-02T12:12:41.122Z,100521.36
2023-03-02T12:15:50.971Z,100518.92
2023-03-02T12:18:23.728Z,100520.98
2023-03-02T12:21:22.195Z,100522.29
2023-03-02T12:23:51.273Z,100524.19
2023-03-02T12:26:19.883Z,100522.33
2023-03-02T12:29:04.814Z,100523.39
2023-03-02T12:32:03.117Z,100530.05
2023-03-02T12:34:37.755Z,100527.42
2023-03-02T12:37:13.539Z,100527.05
2023-03-02T12:39:54.235Z,100529.32
2023-03-02T12:42:47.452Z,100523.66
2023-03-02T12:45:21.030Z,100529.20
2023-03-02T12:47:51.633Z,100529.85
2023-03-02T12:50:22.417Z,100529.35
2023-03-02T12:52:58.689Z,100529.17
2023-03-02T12:55:28.335Z,100523.69
2023-03-02T12:58:01.525Z,100526.14
2023-03-02T13:00:32.198Z,100518.27
2023-03-02T13:03:02.409Z,100510.80
2023-03-02T13:05:32.701Z,100509.86
2023-03-02T13:08:02.237Z,100509.25
2023-03-02T13:10:40.510Z,100509.41
2023-03-02T13:13:20.681Z,100514.80
2023-03-02T13:15:54.010Z,100518.77
2023-03-02T13:18:23.072Z,100515.55
2023-03-02T13:20:52.501Z,100512.75
2023-03-02T13:23:21.526Z,100512.38
2023-03-02T13:25:57.456Z,100509.48
2023-03-02T13:28:35.225Z,100515.11
2023-03-02T13:31:21.528Z,100514.14
2023-03-02T13:33:50.822Z,100514.96
2023-03-02T13:36:30.605Z,100519.52
2023-03-02T13:39:00.002Z,100526.46
2023-03-02T13:41:30.518Z,100527.08
2023-03-02T13:44:00.416Z,100530.78
2023-03-02T13:46:35.454Z,100533.44
2023-03-02T13:49:12.912Z,100530.65
2023-03-02T13:51:46.579Z,100528.39
2023-03-02T13:54:26.068Z,100528.66
2023-03-02T13:56:54.957Z,100531.77
2023-03-02T13:59:27.496Z,100531.30
2023-03-02T14:01:56.172Z,100537.41
2023-03-02T14:04:25.487Z,100536.67
2023-03-02T14:06:55.042Z,100541.36
2023-03-02T14:09:24.019Z,100541.04
2023-03-02T14:11:54.037Z,100541.09
2023-03-02T14:14:24.736Z,100539.55
2023-03-02T14:16:53.472Z,100542.96
2023-03-02T14:19:23.180Z,100538.77
2023-03-02T14:21:53.184Z,100539.85
2023-03-02T14:24:24.532Z,100544.41
2023-03-02T14:26:52.971Z,100545.44
2023-03-02T14:29:31.870Z,100545.67
2023-03-02T14:32:03.778Z,100547.14
2023-03-02T14:34:32.907Z,100545.19
2023-03-02T14:37:04.029Z,100542.47
2023-03-02T14:39:34.906Z,100539.25
2023-03-02T14:42:04.586Z,100538.55
2023-03-02T14:44:35.904Z,100540.08
2023-03-02T14:47:04.826Z,100541.75
2023-03-02T14:49:34.534Z,100539.32
2023-03-02T14:52:26.604Z,100540.13
2023-03-02T14:54:57.213Z,100534.09
2023-03-02T14:57:28.164Z,100533.39
2023-03-02T14:59:59.975Z,100534.64
2023-03-02T15:02:28.780Z,100534.38
2023-03-02T15:05:12.542Z,100536.34
2023-03-02T15:07:44.301Z,100535.31
2023-03-02T15:10:17.846Z,100538.48
2023-03-02T15:12:46.312Z,100537.30
2023-03-02T15:15:17.150Z,100536.29
2023-03-02T15:17:45.744Z,100533.59
2023-03-02T15:20:17.988Z,100539.98
2023-03-02T15:22:47.293Z,100543.37
2023-03-02T15:25:17.430Z,100540.69
2023-03-02T15:27:47.008Z,100543.69
2023-03-02T15:30:15.685Z,100545.44
2023-03-02T15:32:44.265Z,100548.16
2023-03-02T15:35:12.947Z,100545.45
2023-03-02T15:37:45.623Z,100547.86
2023-03-02T15:40:15.156Z,100551.85
2023-03-02T15:42:44.219Z,100558.35
2023-03-02T15:45:14.528Z,100557.42
2023-03-02T15:47:43.186Z,100556.87
2023-03-02T15:50:12.789Z,100555.02
2023-03-02T15:52:42.281Z,100559.23
2023-03-02T15:55:10.953Z,100562.79
2023-03-02T15:57:40.068Z,100567.83
2023-03-02T16:00:13.691Z,100574.09
2023-03-02T16:02:44.412Z,100574.41
2023-03-02T16:05:17.400Z,100578.64
2023-03-02T16:07:48.282Z,100581.64
2023-03-02T16:10:18.671Z,100584.88
2023-03-02T16:12:47.006Z,100582.11
2023-03-02T16:15:15.405Z,100576.98
2023-03-02T16:17:43.862Z,100573.93
2023-03-02T16:20:12.753Z,100576.14
2023-03-02T16:22:41.424Z,100580.67
2023-03-02T16:25:10.045Z,100585.27
2023-03-02T16:27:39.302Z,100582.67
2023-03-02T16:30:11.282Z,100575.45
2023-03-02T16:32:40.639Z,100578.48
2023-03-02T16:35:10.613Z,100581.70
2023-03-02T16:37:41.178Z,100588.98
2023-03-02T16:40:11.259Z,100591.19
2023-03-02T16:42:41.683Z,100586.07
2023-03-02T16:45:11.485Z,100582.52
2023-03-02T16:47:39.957Z,100583.36
2023-03-02T16:50:10.600Z,100593.48
2023-03-02T16:52:39.536Z,100588.03
2023-03-02T16:55:11.470Z,100588.16
2023-03-02T16:57:39.858Z,100587.30
2023-03-02T17:00:10.125Z,100589.88
2023-03-02T17:02:38.627Z,100588.10
2023-03-02T17:05:11.309Z,100588.39
2023-03-02T17:07:41.326Z,100593.36
2023-03-02T17:10:12.576Z,100595.04
2023-03-02T17:12:42.280Z,100596.90
2023-03-02T17:15:13.572Z,100594.98
2023-03-02T17:17:42.624Z,100595.70
2023-03-02T17:20:12.184Z,100590.64
2023-03-02T17:22:40.712Z,100590.55
2023-03-02T17:25:12.077Z,100589.92
2023-03-02T17:27:40.844Z,100583.90
2023-03-02T17:30:13.689Z,100583.23
2023-03-02T17:32:42.415Z,100577.56
2023-03-02T17:35:11.526Z,100578.13
2023-03-02T17:37:42.073Z,100581.20
2023-03-02T17:40:14.103Z,100580.89
2023-03-02T17:42:44.144Z,100578.52
2023-03-02T17:45:20.579Z,100576.89
2023-03-02T17:47:51.220Z,100577.21
2023-03-02T17:50:20.351Z,100580.63
2023-03-02T17:52:49.091Z,100581.64
2023-03-02T17:55:19.126Z,100581.64
2023-03-02T17:57:50.367Z,100579.80
2023-03-02T18:00:20.135Z,100578.72
2023-03-02T18:02:52.642Z,100578.30
2023-03-02T18:05:22.673Z,100583.91
2023-03-02T18:07:52.941Z,100591.45
2023-03-02T18:10:22.413Z,100590.77
2023-03-02T18:12:54.030Z,100590.89
2023-03-02T18:15:23.865Z,100594.88
2023-03-02T18:17:52.349Z,100589.08
2023-03-02T18:20:21.025Z,100591.83
2023-03-02T18:22:50.596Z,100594.66
2023-03-02T18:25:20.692Z,100596.52
2023-03-02T18:27:52.106Z,100596.98
2023-03-02T18:30:21.331Z,100596.04
2023-03-02T18:33:02.381Z,100593.27
2023-03-02T18:35:31.615Z,100594.35
2023-03-02T18:38:01.082Z,100590.41
2023-03-02T18:40:30.492Z,100589.85
2023-03-02T18:42:58.978Z,100590.09
2023-03-02T18:45:30.622Z,100594.95
2023-03-02T18:47:59.160Z,100597.54
2023-03-02T18:50:27.760Z,100602.34
2023-03-02T18:52:56.784Z,100603.55
2023-03-02T18:55:25.400Z,100605.98
2023-03-02T18:57:55.113Z,100601.14
2023-03-02T19:00:27.349Z,100597.14
2023-03-02T19:02:58.390Z,100599.05
2023-03-02T19:05:29.884Z,100604.90
2023-03-02T19:08:00.324Z,100602.90
2023-03-02T19:10:29.160Z,100603.47
2023-03-02T19:12:58.666Z,100605.14
2023-03-02T19:15:28.432Z,100603.86
2023-03-02T19:17:57.419Z,100604.86
2023-03-02T19:20:30.392Z,100605.92
2023-03-02T19:22:59.067Z,100606.61
2023-03-02T19:25:27.753Z,100602.54
2023-03-02T19:27:58.492Z,100600.81
2023-03-02T19:30:27.276Z,100603.81
2023-03-02T19:32:56.354Z,100603.40
2023-03-02T19:35:26.977Z,100597.56
2023-03-02T19:37:55.665Z,100592.50
2023-03-02T19:40:29.437Z,100589.30
2023-03-02T19:42:58.844Z,100588.45
2023-03-02T19:45:30.346Z,100590.73
2023-03-02T19:48:03.846Z,100586.77
2023-03-02T19:50:53.164Z,100585.55
2023-03-02T19:53:21.976Z,100585.90
2023-03-02T19:55:51.686Z,100584.70
2023-03-02T19:58:20.882Z,100580.12
2023-03-02T20:00:49.948Z,100579.09
2023-03-02T20:03:18.691Z,100581.31
2023-03-02T20:05:47.991Z,100577.48
2023-03-02T20:08:17.268Z,100580.71
2023-03-02T20:10:50.983Z,100580.33
2023-03-02T20:13:19.654Z,100575.49
2023-03-02T20:15:48.773Z,100571.17
2023-03-02T20:18:19.271Z,100569.27
2023-03-02T20:20:48.729Z,100569.54
2023-03-02T20:23:18.095Z,100563.98
2023-03-02T20:25:48.313Z,100564.56
2023-03-02T20:28:21.122Z,100561.05
2023-03-02T20:30:53.892Z,100557.94
2023-03-02T20:33:25.431Z,100553.66
2023-03-02T20:35:54.743Z,100554.85
2023-03-02T20:38:29.376Z,100549.83
2023-03-02T20:40:58.342Z,100545.66
2023-03-02T20:43:27.600Z,100543.95
2023-03-02T20:45:56.918Z,100538.01
2023-03-02T20:48:26.483Z,100541.44
2023-03-02T20:50:55.349Z,100539.48
2023-03-02T20:53:24.030Z,100540.13
2023-03-02T20:55:54.246Z,100536.73
2023-03-02T20:58:22.727Z,100533.08
2023-03-02T21:00:51.412Z,100529.96
2023-03-02T21:03:20.507Z,100523.27
2023-03-02T21:05:49.078Z,100523.98
2023-03-02T21:08:17.538Z,100518.64
2023-03-02T21:10:46.743Z,100517.96
2023-03-02T21:13:15.562Z,100517.64
2023-03-02T21:15:44.419Z,100513.91
2023-03-02T21:18:12.959Z,100511.55
2023-03-02T21:20:43.386Z,100513.77
2023-03-02T21:23:12.984Z,100516.34
2023-03-02T21:25:42.461Z,100510.77
2023-03-02T21:28:11.978Z,100508.13
2023-03-02T21:30:41.112Z,100509.63
2023-03-02T21:33:09.759Z,100503.76
2023-03-02T21:35:38.742Z,100504.96
2023-03-02T21:38:07.621Z,100500.31
2023-03-02T21:40:38.680Z,100498.55
2023-03-02T21:43:08.803Z,100503.21
2023-03-02T21:45:38.526Z,100496.38
2023-03-02T21:48:08.802Z,100499.20
2023-03-02T21:50:38.809Z,100496.86
2023-03-02T21:53:08.813Z,100496.61
2023-03-02T21:55:38.485Z,100492.83
2023-03-02T21:58:07.496Z,100490.98
2023-03-02T22:00:38.953Z,100483.39
2023-03-02T22:03:07.696Z,100490.88
2023-03-02T22:05:39.472Z,100487.71
2023-03-02T22:08:08.059Z,100484.67
2023-03-02T22:10:41.623Z,100482.92
2023-03-02T22:13:24.307Z,100487.27
2023-03-02T22:16:15.781Z,100483.34
2023-03-02T22:18:46.473Z,100486.18
2023-03-02T22:21:38.701Z,100482.02
2023-03-02T22:24:09.739Z,100482.00
2023-03-02T22:26:43.935Z,100481.86
2023-03-02T22:29:25.672Z,100480.16
2023-03-02T22:31:55.713Z,100478.08
2023-03-02T22:34:30.415Z,100479.67
2023-03-02T22:37:00.479Z,100480.23
2023-03-02T22:39:31.530Z,100478.92
2023-03-02T22:42:06.377Z,100477.40
2023-03-02T22:44:34.938Z,100475.16
2023-03-02T22:47:08.884Z,100478.42
2023-03-02T22:49:37.631Z,100474.52
2023-03-02T22:52:15.787Z,100471.85
2023-03-02T22:54:45.832Z,100469.98
2023-03-02T22:57:31.822Z,100469.54
2023-03-02T23:00:40.436Z,100470.00
2023-03-02T23:03:18.270Z,100467.45
2023-03-02T23:05:49.265Z,100469.70
2023-03-02T23:08:25.246Z,100470.88
2023-03-02T23:10:57.717Z,100473.98
2023-03-02T23:13:31.653Z,100471.05
2023-03-02T23:16:00.978Z,100467.52
2023-03-02T23:18:30.867Z,100459.42
2023-03-02T23:20:59.553Z,100459.06
2023-03-02T23:23:28.189Z,100452.30
2023-03-02T23:25:57.030Z,100444.96
2023-03-02T23:28:25.610Z,100444.31
2023-03-02T23:30:54.216Z,100448.55
2023-03-02T23:33:23.393Z,100448.91
2023-03-02T23:35:51.989Z,100444.85
2023-03-02T23:38:21.693Z,100438.04
2023-03-02T23:40:50.067Z,100434.16
2023-03-02T23:43:22.431Z,100430.11
2023-03-02T23:45:56.357Z,100422.92
2023-03-02T23:48:24.823Z,100423.58
2023-03-02T23:50:53.558Z,100419.60
2023-03-02T23:53:21.985Z,100416.33
2023-03-02T23:55:52.166Z,100417.63
2023-03-02T23:58:21.356Z,100416.48
